Montgomery, Alabama
Current Conditions -  °F | °C
As of 1:53 AM on Friday 24 Oct 2014 (Local Time) from KMGM Reporting Station
Clear Clear  
Wind Chill: 50°   Ceiling: Unl
Heat Index: 50°   Visibility: 10mi
Dew Point: 46°   Wind: 5mph
Humidity: 86%   Direction: 250°WSW
Pressure: 30.07"   Gusts: NA
Location:  32.38°N, 86.3°W
Report Text: KMGM 240653Z 25004KT 10SM CLR 10/08 A3007 RMK AO2 SLP181 T01000078
Loading
Personal Weather Stations






























Interactive Weather Map
Tropical Storm Tracking
New forecast layout! Learn more

10-Day Weather Forecast

Advertisements
Track Severe Weather on mobile